sensor_id;sensor_type;location;lat;lon;timestamp;P1;durP1;ratioP1;P2;durP2;ratioP2
37791;SDS011;29527;55.766;37.570;2023-02-19T00:00:03;17.25;;;9.93;;
37791;SDS011;29527;55.766;37.570;2023-02-19T00:02:31;23.25;;;11.82;;
37791;SDS011;29527;55.766;37.570;2023-02-19T00:04:56;18.63;;;9.85;;
37791;SDS011;29527;55.766;37.570;2023-02-19T00:07:22;20.88;;;11.27;;
37791;SDS011;29527;55.766;37.570;2023-02-19T00:09:47;22.75;;;11.10;;
37791;SDS011;29527;55.766;37.570;2023-02-19T00:12:12;21.80;;;11.43;;
37791;SDS011;29527;55.766;37.570;2023-02-19T00:14:38;22.05;;;11.88;;
37791;SDS011;29527;55.766;37.570;2023-02-19T00:17:03;21.20;;;11.38;;
37791;SDS011;29527;55.766;37.570;2023-02-19T00:19:29;24.55;;;12.02;;
37791;SDS011;29527;55.766;37.570;2023-02-19T00:21:54;23.83;;;12.10;;
37791;SDS011;29527;55.766;37.570;2023-02-19T00:24:20;17.27;;;8.55;;
37791;SDS011;29527;55.766;37.570;2023-02-19T00:26:46;21.15;;;11.43;;
37791;SDS011;29527;55.766;37.570;2023-02-19T00:29:13;24.48;;;11.50;;
37791;SDS011;29527;55.766;37.570;2023-02-19T00:31:41;23.85;;;11.93;;
37791;SDS011;29527;55.766;37.570;2023-02-19T00:34:08;24.48;;;11.45;;
37791;SDS011;29527;55.766;37.570;2023-02-19T00:36:35;19.35;;;9.82;;
37791;SDS011;29527;55.766;37.570;2023-02-19T00:39:02;18.95;;;10.55;;
37791;SDS011;29527;55.766;37.570;2023-02-19T00:41:29;23.15;;;10.10;;
37791;SDS011;29527;55.766;37.570;2023-02-19T00:43:59;19.65;;;10.05;;
37791;SDS011;29527;55.766;37.570;2023-02-19T00:46:31;22.75;;;11.85;;
37791;SDS011;29527;55.766;37.570;2023-02-19T00:48:58;27.17;;;12.10;;
37791;SDS011;29527;55.766;37.570;2023-02-19T00:51:29;24.70;;;11.73;;
37791;SDS011;29527;55.766;37.570;2023-02-19T00:53:56;26.23;;;12.07;;
37791;SDS011;29527;55.766;37.570;2023-02-19T00:56:22;24.48;;;11.38;;
37791;SDS011;29527;55.766;37.570;2023-02-19T00:58:47;26.73;;;12.20;;
37791;SDS011;29527;55.766;37.570;2023-02-19T01:01:13;22.75;;;12.43;;
37791;SDS011;29527;55.766;37.570;2023-02-19T01:03:39;23.55;;;12.77;;
37791;SDS011;29527;55.766;37.570;2023-02-19T01:06:06;21.38;;;10.57;;
37791;SDS011;29527;55.766;37.570;2023-02-19T01:08:33;23.38;;;11.52;;
37791;SDS011;29527;55.766;37.570;2023-02-19T01:10:59;20.42;;;11.02;;
37791;SDS011;29527;55.766;37.570;2023-02-19T01:13:25;21.77;;;11.23;;
37791;SDS011;29527;55.766;37.570;2023-02-19T01:15:52;21.30;;;11.15;;
37791;SDS011;29527;55.766;37.570;2023-02-19T01:18:18;20.67;;;10.30;;
37791;SDS011;29527;55.766;37.570;2023-02-19T01:20:44;21.85;;;10.48;;
37791;SDS011;29527;55.766;37.570;2023-02-19T01:23:10;22.30;;;10.98;;
37791;SDS011;29527;55.766;37.570;2023-02-19T01:25:38;22.52;;;12.27;;
37791;SDS011;29527;55.766;37.570;2023-02-19T01:28:04;23.70;;;11.85;;
37791;SDS011;29527;55.766;37.570;2023-02-19T01:30:32;27.90;;;12.68;;
37791;SDS011;29527;55.766;37.570;2023-02-19T01:33:04;22.13;;;11.13;;
37791;SDS011;29527;55.766;37.570;2023-02-19T01:35:31;25.10;;;12.18;;
37791;SDS011;29527;55.766;37.570;2023-02-19T01:37:57;12.15;;;6.63;;
37791;SDS011;29527;55.766;37.570;2023-02-19T01:40:23;22.70;;;11.52;;
37791;SDS011;29527;55.766;37.570;2023-02-19T01:42:49;20.45;;;10.70;;
37791;SDS011;29527;55.766;37.570;2023-02-19T01:45:18;25.48;;;12.57;;
37791;SDS011;29527;55.766;37.570;2023-02-19T01:47:59;22.27;;;12.25;;
37791;SDS011;29527;55.766;37.570;2023-02-19T01:50:31;24.02;;;12.23;;
37791;SDS011;29527;55.766;37.570;2023-02-19T01:53:00;22.30;;;10.85;;
37791;SDS011;29527;55.766;37.570;2023-02-19T01:55:29;19.00;;;9.25;;
37791;SDS011;29527;55.766;37.570;2023-02-19T01:57:56;24.13;;;11.82;;
37791;SDS011;29527;55.766;37.570;2023-02-19T02:00:23;23.50;;;10.85;;
37791;SDS011;29527;55.766;37.570;2023-02-19T02:02:50;19.90;;;9.68;;
37791;SDS011;29527;55.766;37.570;2023-02-19T02:08:12;25.77;;;11.07;;
37791;SDS011;29527;55.766;37.570;2023-02-19T02:10:57;20.75;;;9.77;;
37791;SDS011;29527;55.766;37.570;2023-02-19T02:13:23;19.23;;;10.13;;
37791;SDS011;29527;55.766;37.570;2023-02-19T02:16:13;20.83;;;11.07;;
37791;SDS011;29527;55.766;37.570;2023-02-19T02:18:53;16.83;;;9.23;;
37791;SDS011;29527;55.766;37.570;2023-02-19T02:21:41;17.30;;;9.52;;
37791;SDS011;29527;55.766;37.570;2023-02-19T02:35:26;19.58;;;9.52;;
37791;SDS011;29527;55.766;37.570;2023-02-19T02:37:59;17.35;;;8.60;;
37791;SDS011;29527;55.766;37.570;2023-02-19T02:40:30;15.45;;;9.05;;
37791;SDS011;29527;55.766;37.570;2023-02-19T02:42:56;20.80;;;9.93;;
37791;SDS011;29527;55.766;37.570;2023-02-19T02:45:24;14.55;;;8.40;;
37791;SDS011;29527;55.766;37.570;2023-02-19T02:52:01;11.00;;;5.43;;
37791;SDS011;29527;55.766;37.570;2023-02-19T02:54:02;12.25;;;5.90;;
37791;SDS011;29527;55.766;37.570;2023-02-19T02:56:48;16.92;;;9.15;;
37791;SDS011;29527;55.766;37.570;2023-02-19T02:59:14;18.00;;;8.80;;
37791;SDS011;29527;55.766;37.570;2023-02-19T03:01:54;17.10;;;8.57;;
37791;SDS011;29527;55.766;37.570;2023-02-19T03:07:38;15.80;;;9.23;;
37791;SDS011;29527;55.766;37.570;2023-02-19T03:10:12;16.67;;;9.18;;
37791;SDS011;29527;55.766;37.570;2023-02-19T03:12:42;16.42;;;9.20;;
37791;SDS011;29527;55.766;37.570;2023-02-19T03:15:30;18.38;;;9.30;;
37791;SDS011;29527;55.766;37.570;2023-02-19T03:18:18;13.05;;;6.10;;
37791;SDS011;29527;55.766;37.570;2023-02-19T03:21:16;20.55;;;9.90;;
37791;SDS011;29527;55.766;37.570;2023-02-19T03:23:46;19.20;;;8.80;;
37791;SDS011;29527;55.766;37.570;2023-02-19T03:26:32;12.60;;;6.05;;
37791;SDS011;29527;55.766;37.570;2023-02-19T03:28:58;19.48;;;9.85;;
37791;SDS011;29527;55.766;37.570;2023-02-19T03:31:45;18.05;;;9.68;;
37791;SDS011;29527;55.766;37.570;2023-02-19T03:34:14;18.13;;;8.88;;
37791;SDS011;29527;55.766;37.570;2023-02-19T03:36:45;17.85;;;8.98;;
37791;SDS011;29527;55.766;37.570;2023-02-19T03:39:18;17.98;;;9.60;;
37791;SDS011;29527;55.766;37.570;2023-02-19T03:50:23;19.02;;;9.48;;
37791;SDS011;29527;55.766;37.570;2023-02-19T03:53:16;21.90;;;9.48;;
37791;SDS011;29527;55.766;37.570;2023-02-19T04:01:14;17.08;;;8.82;;
37791;SDS011;29527;55.766;37.570;2023-02-19T04:03:48;14.38;;;7.45;;
37791;SDS011;29527;55.766;37.570;2023-02-19T04:06:21;16.77;;;9.07;;
37791;SDS011;29527;55.766;37.570;2023-02-19T04:08:51;17.92;;;9.02;;
37791;SDS011;29527;55.766;37.570;2023-02-19T04:11:19;15.27;;;6.88;;
37791;SDS011;29527;55.766;37.570;2023-02-19T04:13:50;16.75;;;8.55;;
37791;SDS011;29527;55.766;37.570;2023-02-19T04:18:51;16.98;;;9.43;;
37791;SDS011;29527;55.766;37.570;2023-02-19T04:21:21;17.73;;;9.90;;
37791;SDS011;29527;55.766;37.570;2023-02-19T04:23:47;19.63;;;8.98;;
37791;SDS011;29527;55.766;37.570;2023-02-19T04:26:13;18.63;;;9.57;;
37791;SDS011;29527;55.766;37.570;2023-02-19T04:28:40;18.30;;;9.27;;
37791;SDS011;29527;55.766;37.570;2023-02-19T04:31:08;19.90;;;10.07;;
37791;SDS011;29527;55.766;37.570;2023-02-19T04:33:34;19.33;;;8.93;;
37791;SDS011;29527;55.766;37.570;2023-02-19T04:36:00;19.05;;;8.88;;
37791;SDS011;29527;55.766;37.570;2023-02-19T04:38:26;15.82;;;8.27;;
37791;SDS011;29527;55.766;37.570;2023-02-19T04:40:51;19.27;;;9.55;;
37791;SDS011;29527;55.766;37.570;2023-02-19T04:43:17;16.85;;;9.13;;
37791;SDS011;29527;55.766;37.570;2023-02-19T04:45:42;22.70;;;9.95;;
37791;SDS011;29527;55.766;37.570;2023-02-19T04:48:08;19.02;;;9.70;;
37791;SDS011;29527;55.766;37.570;2023-02-19T04:50:36;19.05;;;8.25;;
37791;SDS011;29527;55.766;37.570;2023-02-19T04:53:03;18.10;;;9.68;;
37791;SDS011;29527;55.766;37.570;2023-02-19T04:55:28;25.17;;;10.40;;
37791;SDS011;29527;55.766;37.570;2023-02-19T04:57:53;21.55;;;9.38;;
37791;SDS011;29527;55.766;37.570;2023-02-19T05:00:19;19.60;;;10.20;;
37791;SDS011;29527;55.766;37.570;2023-02-19T05:02:44;20.88;;;10.73;;
37791;SDS011;29527;55.766;37.570;2023-02-19T05:05:10;20.90;;;9.82;;
37791;SDS011;29527;55.766;37.570;2023-02-19T05:07:35;20.20;;;10.40;;
37791;SDS011;29527;55.766;37.570;2023-02-19T05:10:01;20.50;;;10.10;;
37791;SDS011;29527;55.766;37.570;2023-02-19T05:12:28;18.17;;;9.20;;
37791;SDS011;29527;55.766;37.570;2023-02-19T05:14:54;21.70;;;11.15;;
37791;SDS011;29527;55.766;37.570;2023-02-19T05:17:20;18.58;;;9.35;;
37791;SDS011;29527;55.766;37.570;2023-02-19T05:19:45;20.80;;;10.20;;
37791;SDS011;29527;55.766;37.570;2023-02-19T05:22:11;15.73;;;7.40;;
37791;SDS011;29527;55.766;37.570;2023-02-19T05:24:36;17.33;;;8.98;;
37791;SDS011;29527;55.766;37.570;2023-02-19T05:27:01;23.30;;;10.98;;
37791;SDS011;29527;55.766;37.570;2023-02-19T05:29:29;23.52;;;9.07;;
37791;SDS011;29527;55.766;37.570;2023-02-19T05:31:55;15.43;;;6.88;;
37791;SDS011;29527;55.766;37.570;2023-02-19T05:34:20;21.42;;;10.13;;
37791;SDS011;29527;55.766;37.570;2023-02-19T05:36:46;18.13;;;7.72;;
37791;SDS011;29527;55.766;37.570;2023-02-19T05:39:11;19.90;;;10.40;;
37791;SDS011;29527;55.766;37.570;2023-02-19T05:41:37;13.77;;;5.05;;
37791;SDS011;29527;55.766;37.570;2023-02-19T05:44:03;21.10;;;9.27;;
37791;SDS011;29527;55.766;37.570;2023-02-19T05:46:28;18.90;;;9.40;;
37791;SDS011;29527;55.766;37.570;2023-02-19T05:48:54;9.70;;;5.20;;
37791;SDS011;29527;55.766;37.570;2023-02-19T05:51:21;21.70;;;10.40;;
37791;SDS011;29527;55.766;37.570;2023-02-19T05:53:48;14.93;;;8.60;;
37791;SDS011;29527;55.766;37.570;2023-02-19T05:59:00;16.80;;;7.88;;
37791;SDS011;29527;55.766;37.570;2023-02-19T06:01:28;18.63;;;8.40;;
37791;SDS011;29527;55.766;37.570;2023-02-19T06:03:54;16.45;;;9.15;;
37791;SDS011;29527;55.766;37.570;2023-02-19T06:06:20;16.60;;;7.93;;
37791;SDS011;29527;55.766;37.570;2023-02-19T06:08:47;16.05;;;8.63;;
37791;SDS011;29527;55.766;37.570;2023-02-19T06:11:14;15.13;;;8.20;;
37791;SDS011;29527;55.766;37.570;2023-02-19T06:13:40;17.35;;;8.20;;
37791;SDS011;29527;55.766;37.570;2023-02-19T06:16:06;17.17;;;8.40;;
37791;SDS011;29527;55.766;37.570;2023-02-19T06:18:32;13.05;;;7.28;;
37791;SDS011;29527;55.766;37.570;2023-02-19T06:21:05;19.00;;;8.70;;
37791;SDS011;29527;55.766;37.570;2023-02-19T06:23:32;12.70;;;6.85;;
37791;SDS011;29527;55.766;37.570;2023-02-19T06:26:05;16.85;;;7.72;;
37791;SDS011;29527;55.766;37.570;2023-02-19T06:28:31;12.93;;;7.72;;
37791;SDS011;29527;55.766;37.570;2023-02-19T06:30:57;10.25;;;6.03;;
37791;SDS011;29527;55.766;37.570;2023-02-19T06:33:23;14.95;;;5.35;;
37791;SDS011;29527;55.766;37.570;2023-02-19T06:35:50;14.65;;;7.40;;
37791;SDS011;29527;55.766;37.570;2023-02-19T06:38:15;13.20;;;7.78;;
37791;SDS011;29527;55.766;37.570;2023-02-19T06:40:40;10.05;;;5.75;;
37791;SDS011;29527;55.766;37.570;2023-02-19T06:43:06;20.33;;;7.30;;
37791;SDS011;29527;55.766;37.570;2023-02-19T06:45:32;11.93;;;6.75;;
37791;SDS011;29527;55.766;37.570;2023-02-19T06:47:58;12.15;;;7.25;;
37791;SDS011;29527;55.766;37.570;2023-02-19T06:50:23;9.57;;;4.97;;
37791;SDS011;29527;55.766;37.570;2023-02-19T06:52:49;13.20;;;6.30;;
37791;SDS011;29527;55.766;37.570;2023-02-19T06:55:14;13.90;;;7.00;;
37791;SDS011;29527;55.766;37.570;2023-02-19T06:57:40;12.40;;;7.35;;
37791;SDS011;29527;55.766;37.570;2023-02-19T07:00:05;10.45;;;6.28;;
37791;SDS011;29527;55.766;37.570;2023-02-19T07:02:31;12.98;;;7.35;;
37791;SDS011;29527;55.766;37.570;2023-02-19T07:04:57;12.10;;;6.47;;
37791;SDS011;29527;55.766;37.570;2023-02-19T07:07:22;11.52;;;6.22;;
37791;SDS011;29527;55.766;37.570;2023-02-19T07:09:47;12.93;;;7.20;;
37791;SDS011;29527;55.766;37.570;2023-02-19T07:12:13;14.57;;;7.30;;
37791;SDS011;29527;55.766;37.570;2023-02-19T07:14:38;13.18;;;7.03;;
37791;SDS011;29527;55.766;37.570;2023-02-19T07:17:04;14.43;;;6.68;;
37791;SDS011;29527;55.766;37.570;2023-02-19T07:19:29;11.55;;;6.65;;
37791;SDS011;29527;55.766;37.570;2023-02-19T07:21:55;12.35;;;6.47;;
37791;SDS011;29527;55.766;37.570;2023-02-19T07:24:20;16.08;;;7.10;;
37791;SDS011;29527;55.766;37.570;2023-02-19T07:26:46;11.55;;;6.47;;
37791;SDS011;29527;55.766;37.570;2023-02-19T07:29:12;14.48;;;7.68;;
37791;SDS011;29527;55.766;37.570;2023-02-19T07:31:37;11.60;;;6.45;;
37791;SDS011;29527;55.766;37.570;2023-02-19T07:34:03;12.18;;;7.35;;
37791;SDS011;29527;55.766;37.570;2023-02-19T07:36:28;12.63;;;7.13;;
37791;SDS011;29527;55.766;37.570;2023-02-19T07:38:57;13.68;;;7.20;;
37791;SDS011;29527;55.766;37.570;2023-02-19T07:41:23;11.90;;;7.25;;
37791;SDS011;29527;55.766;37.570;2023-02-19T07:43:50;12.95;;;7.15;;
37791;SDS011;29527;55.766;37.570;2023-02-19T07:46:16;15.15;;;7.82;;
37791;SDS011;29527;55.766;37.570;2023-02-19T07:48:41;14.35;;;7.78;;
37791;SDS011;29527;55.766;37.570;2023-02-19T07:51:08;13.02;;;7.70;;
37791;SDS011;29527;55.766;37.570;2023-02-19T07:53:40;13.35;;;7.53;;
37791;SDS011;29527;55.766;37.570;2023-02-19T07:56:06;11.82;;;7.05;;
37791;SDS011;29527;55.766;37.570;2023-02-19T07:58:33;14.80;;;7.35;;
37791;SDS011;29527;55.766;37.570;2023-02-19T08:04:12;12.32;;;6.20;;
37791;SDS011;29527;55.766;37.570;2023-02-19T08:06:38;8.70;;;5.20;;
37791;SDS011;29527;55.766;37.570;2023-02-19T08:09:04;12.93;;;7.80;;
37791;SDS011;29527;55.766;37.570;2023-02-19T08:11:30;11.50;;;6.45;;
37791;SDS011;29527;55.766;37.570;2023-02-19T08:14:14;13.50;;;7.38;;
37791;SDS011;29527;55.766;37.570;2023-02-19T08:16:46;15.32;;;8.00;;
37791;SDS011;29527;55.766;37.570;2023-02-19T08:19:12;14.05;;;7.80;;
37791;SDS011;29527;55.766;37.570;2023-02-19T08:21:38;12.38;;;7.13;;
37791;SDS011;29527;55.766;37.570;2023-02-19T08:24:03;12.18;;;5.38;;
37791;SDS011;29527;55.766;37.570;2023-02-19T08:26:29;14.80;;;7.90;;
37791;SDS011;29527;55.766;37.570;2023-02-19T08:28:55;15.00;;;7.88;;
37791;SDS011;29527;55.766;37.570;2023-02-19T08:31:20;14.80;;;8.27;;
37791;SDS011;29527;55.766;37.570;2023-02-19T08:33:46;15.65;;;8.35;;
37791;SDS011;29527;55.766;37.570;2023-02-19T08:36:11;14.32;;;8.35;;
37791;SDS011;29527;55.766;37.570;2023-02-19T08:38:37;14.05;;;8.00;;
37791;SDS011;29527;55.766;37.570;2023-02-19T08:41:05;14.77;;;8.00;;
37791;SDS011;29527;55.766;37.570;2023-02-19T08:43:33;14.15;;;8.35;;
37791;SDS011;29527;55.766;37.570;2023-02-19T08:45:59;14.38;;;7.82;;
37791;SDS011;29527;55.766;37.570;2023-02-19T08:48:24;15.10;;;8.23;;
37791;SDS011;29527;55.766;37.570;2023-02-19T08:50:53;11.30;;;5.82;;
37791;SDS011;29527;55.766;37.570;2023-02-19T08:53:20;15.63;;;8.57;;
37791;SDS011;29527;55.766;37.570;2023-02-19T08:55:46;15.07;;;8.27;;
37791;SDS011;29527;55.766;37.570;2023-02-19T08:58:11;17.73;;;9.02;;
37791;SDS011;29527;55.766;37.570;2023-02-19T09:00:36;18.10;;;8.93;;
37791;SDS011;29527;55.766;37.570;2023-02-19T09:03:02;14.75;;;8.80;;
37791;SDS011;29527;55.766;37.570;2023-02-19T09:05:27;11.98;;;6.05;;
37791;SDS011;29527;55.766;37.570;2023-02-19T09:07:53;17.17;;;9.00;;
37791;SDS011;29527;55.766;37.570;2023-02-19T09:10:18;14.98;;;7.60;;
37791;SDS011;29527;55.766;37.570;2023-02-19T09:12:44;14.43;;;7.72;;
37791;SDS011;29527;55.766;37.570;2023-02-19T09:15:09;18.48;;;9.23;;
37791;SDS011;29527;55.766;37.570;2023-02-19T09:17:35;13.45;;;7.85;;
37791;SDS011;29527;55.766;37.570;2023-02-19T09:20:00;15.00;;;7.53;;
37791;SDS011;29527;55.766;37.570;2023-02-19T09:22:26;16.95;;;9.20;;
37791;SDS011;29527;55.766;37.570;2023-02-19T09:24:51;17.85;;;8.63;;
37791;SDS011;29527;55.766;37.570;2023-02-19T09:27:17;13.13;;;7.82;;
37791;SDS011;29527;55.766;37.570;2023-02-19T09:29:44;18.50;;;8.93;;
37791;SDS011;29527;55.766;37.570;2023-02-19T09:32:10;16.38;;;8.82;;
37791;SDS011;29527;55.766;37.570;2023-02-19T09:34:35;14.88;;;8.27;;
37791;SDS011;29527;55.766;37.570;2023-02-19T09:37:03;21.48;;;8.90;;
37791;SDS011;29527;55.766;37.570;2023-02-19T09:39:32;22.25;;;9.50;;
37791;SDS011;29527;55.766;37.570;2023-02-19T09:41:59;15.85;;;8.75;;
37791;SDS011;29527;55.766;37.570;2023-02-19T09:44:31;15.90;;;8.85;;
37791;SDS011;29527;55.766;37.570;2023-02-19T09:46:59;15.82;;;9.02;;
37791;SDS011;29527;55.766;37.570;2023-02-19T09:49:38;17.55;;;9.18;;
37791;SDS011;29527;55.766;37.570;2023-02-19T09:54:49;16.45;;;8.70;;
37791;SDS011;29527;55.766;37.570;2023-02-19T09:57:17;16.95;;;9.68;;
37791;SDS011;29527;55.766;37.570;2023-02-19T09:59:47;16.90;;;8.63;;
37791;SDS011;29527;55.766;37.570;2023-02-19T10:02:15;19.77;;;9.05;;
37791;SDS011;29527;55.766;37.570;2023-02-19T10:04:46;17.58;;;8.60;;
37791;SDS011;29527;55.766;37.570;2023-02-19T10:07:13;17.92;;;9.20;;
37791;SDS011;29527;55.766;37.570;2023-02-19T10:09:42;18.65;;;10.52;;
37791;SDS011;29527;55.766;37.570;2023-02-19T10:12:18;15.15;;;8.98;;
37791;SDS011;29527;55.766;37.570;2023-02-19T10:14:50;18.70;;;9.18;;
37791;SDS011;29527;55.766;37.570;2023-02-19T10:17:21;16.33;;;8.40;;
37791;SDS011;29527;55.766;37.570;2023-02-19T10:19:49;15.90;;;8.85;;
37791;SDS011;29527;55.766;37.570;2023-02-19T10:22:16;15.68;;;8.85;;
37791;SDS011;29527;55.766;37.570;2023-02-19T10:24:42;18.67;;;9.80;;
37791;SDS011;29527;55.766;37.570;2023-02-19T10:27:10;15.73;;;8.55;;
37791;SDS011;29527;55.766;37.570;2023-02-19T10:29:38;16.33;;;9.73;;
37791;SDS011;29527;55.766;37.570;2023-02-19T10:32:14;16.08;;;9.32;;
37791;SDS011;29527;55.766;37.570;2023-02-19T10:34:44;16.58;;;9.02;;
37791;SDS011;29527;55.766;37.570;2023-02-19T10:37:12;16.75;;;9.43;;
37791;SDS011;29527;55.766;37.570;2023-02-19T10:39:42;14.88;;;8.73;;
37791;SDS011;29527;55.766;37.570;2023-02-19T10:42:20;18.02;;;9.05;;
37791;SDS011;29527;55.766;37.570;2023-02-19T10:44:56;15.18;;;9.13;;
37791;SDS011;29527;55.766;37.570;2023-02-19T10:47:26;19.02;;;9.32;;
37791;SDS011;29527;55.766;37.570;2023-02-19T10:49:57;15.43;;;9.00;;
37791;SDS011;29527;55.766;37.570;2023-02-19T10:52:28;17.40;;;9.52;;
37791;SDS011;29527;55.766;37.570;2023-02-19T10:55:44;16.88;;;9.30;;
37791;SDS011;29527;55.766;37.570;2023-02-19T10:57:44;14.43;;;7.72;;
37791;SDS011;29527;55.766;37.570;2023-02-19T11:02:39;14.30;;;7.18;;
37791;SDS011;29527;55.766;37.570;2023-02-19T11:07:37;13.35;;;7.57;;
37791;SDS011;29527;55.766;37.570;2023-02-19T11:10:18;17.45;;;8.82;;
37791;SDS011;29527;55.766;37.570;2023-02-19T11:12:48;16.15;;;8.85;;
37791;SDS011;29527;55.766;37.570;2023-02-19T11:15:19;15.73;;;9.68;;
37791;SDS011;29527;55.766;37.570;2023-02-19T11:17:52;16.60;;;9.18;;
37791;SDS011;29527;55.766;37.570;2023-02-19T11:20:23;16.83;;;9.80;;
37791;SDS011;29527;55.766;37.570;2023-02-19T11:22:49;15.27;;;8.68;;
37791;SDS011;29527;55.766;37.570;2023-02-19T11:27:54;17.83;;;9.70;;
37791;SDS011;29527;55.766;37.570;2023-02-19T11:30:45;17.10;;;9.57;;
37791;SDS011;29527;55.766;37.570;2023-02-19T11:38:45;17.02;;;10.02;;
37791;SDS011;29527;55.766;37.570;2023-02-19T11:43:55;18.85;;;10.15;;
37791;SDS011;29527;55.766;37.570;2023-02-19T12:00:23;19.13;;;10.02;;
37791;SDS011;29527;55.766;37.570;2023-02-19T12:11:00;16.73;;;9.77;;
37791;SDS011;29527;55.766;37.570;2023-02-19T12:16:21;15.80;;;8.30;;
37791;SDS011;29527;55.766;37.570;2023-02-19T12:27:17;12.60;;;6.78;;
37791;SDS011;29527;55.766;37.570;2023-02-19T12:43:18;15.40;;;7.50;;
37791;SDS011;29527;55.766;37.570;2023-02-19T12:45:59;16.85;;;9.68;;
37791;SDS011;29527;55.766;37.570;2023-02-19T12:48:50;19.75;;;9.52;;
37791;SDS011;29527;55.766;37.570;2023-02-19T12:51:24;17.60;;;9.85;;
37791;SDS011;29527;55.766;37.570;2023-02-19T12:56:33;17.75;;;8.70;;
37791;SDS011;29527;55.766;37.570;2023-02-19T12:59:04;13.93;;;7.20;;
37791;SDS011;29527;55.766;37.570;2023-02-19T13:01:44;22.80;;;10.30;;
37791;SDS011;29527;55.766;37.570;2023-02-19T13:04:31;16.65;;;9.57;;
37791;SDS011;29527;55.766;37.570;2023-02-19T13:07:11;22.05;;;10.55;;
37791;SDS011;29527;55.766;37.570;2023-02-19T13:09:48;23.33;;;10.23;;
37791;SDS011;29527;55.766;37.570;2023-02-19T13:12:20;19.45;;;11.07;;
37791;SDS011;29527;55.766;37.570;2023-02-19T13:18:23;18.60;;;10.23;;
37791;SDS011;29527;55.766;37.570;2023-02-19T13:20:53;16.83;;;10.23;;
37791;SDS011;29527;55.766;37.570;2023-02-19T13:37:32;20.67;;;10.25;;
37791;SDS011;29527;55.766;37.570;2023-02-19T13:40:00;17.90;;;9.90;;
37791;SDS011;29527;55.766;37.570;2023-02-19T13:42:34;17.42;;;9.82;;
37791;SDS011;29527;55.766;37.570;2023-02-19T13:45:01;20.02;;;9.32;;
37791;SDS011;29527;55.766;37.570;2023-02-19T13:50:28;18.52;;;9.30;;
37791;SDS011;29527;55.766;37.570;2023-02-19T13:52:59;18.73;;;9.02;;
37791;SDS011;29527;55.766;37.570;2023-02-19T14:01:04;17.45;;;9.52;;
37791;SDS011;29527;55.766;37.570;2023-02-19T14:05:59;17.88;;;9.95;;
37791;SDS011;29527;55.766;37.570;2023-02-19T14:11:18;17.92;;;8.88;;
37791;SDS011;29527;55.766;37.570;2023-02-19T14:27:53;21.23;;;9.80;;
37791;SDS011;29527;55.766;37.570;2023-02-19T14:30:24;17.67;;;9.35;;
37791;SDS011;29527;55.766;37.570;2023-02-19T14:32:50;18.33;;;9.80;;
37791;SDS011;29527;55.766;37.570;2023-02-19T14:35:22;18.38;;;10.25;;
37791;SDS011;29527;55.766;37.570;2023-02-19T14:37:51;15.63;;;7.18;;
37791;SDS011;29527;55.766;37.570;2023-02-19T14:40:29;18.75;;;9.88;;
37791;SDS011;29527;55.766;37.570;2023-02-19T14:43:00;22.60;;;11.30;;
37791;SDS011;29527;55.766;37.570;2023-02-19T14:45:28;21.35;;;10.15;;
37791;SDS011;29527;55.766;37.570;2023-02-19T14:48:03;23.00;;;10.30;;
37791;SDS011;29527;55.766;37.570;2023-02-19T14:50:31;19.88;;;8.05;;
37791;SDS011;29527;55.766;37.570;2023-02-19T14:52:57;19.35;;;10.18;;
37791;SDS011;29527;55.766;37.570;2023-02-19T14:55:31;20.60;;;10.20;;
37791;SDS011;29527;55.766;37.570;2023-02-19T14:58:00;19.20;;;10.35;;
37791;SDS011;29527;55.766;37.570;2023-02-19T15:00:32;20.08;;;9.98;;
37791;SDS011;29527;55.766;37.570;2023-02-19T15:03:01;15.73;;;7.60;;
37791;SDS011;29527;55.766;37.570;2023-02-19T15:05:28;21.45;;;10.40;;
37791;SDS011;29527;55.766;37.570;2023-02-19T15:07:59;15.73;;;8.98;;
37791;SDS011;29527;55.766;37.570;2023-02-19T15:10:29;15.18;;;8.02;;
37791;SDS011;29527;55.766;37.570;2023-02-19T15:13:03;16.52;;;7.90;;
37791;SDS011;29527;55.766;37.570;2023-02-19T15:15:35;21.60;;;10.90;;
37791;SDS011;29527;55.766;37.570;2023-02-19T15:18:04;14.50;;;7.50;;
37791;SDS011;29527;55.766;37.570;2023-02-19T15:20:31;21.48;;;10.70;;
37791;SDS011;29527;55.766;37.570;2023-02-19T15:22:59;21.27;;;10.45;;
37791;SDS011;29527;55.766;37.570;2023-02-19T15:25:35;21.38;;;9.43;;
37791;SDS011;29527;55.766;37.570;2023-02-19T15:33:20;21.13;;;10.43;;
37791;SDS011;29527;55.766;37.570;2023-02-19T15:35:47;22.30;;;10.45;;
37791;SDS011;29527;55.766;37.570;2023-02-19T15:38:17;19.05;;;10.63;;
37791;SDS011;29527;55.766;37.570;2023-02-19T15:40:44;21.40;;;10.20;;
37791;SDS011;29527;55.766;37.570;2023-02-19T15:43:17;19.67;;;11.18;;
37791;SDS011;29527;55.766;37.570;2023-02-19T15:45:49;21.40;;;11.25;;
37791;SDS011;29527;55.766;37.570;2023-02-19T15:48:17;18.27;;;9.07;;
37791;SDS011;29527;55.766;37.570;2023-02-19T15:50:46;21.92;;;10.95;;
37791;SDS011;29527;55.766;37.570;2023-02-19T15:53:20;23.08;;;10.55;;
37791;SDS011;29527;55.766;37.570;2023-02-19T15:58:28;18.70;;;9.65;;
37791;SDS011;29527;55.766;37.570;2023-02-19T16:03:26;20.52;;;11.05;;
37791;SDS011;29527;55.766;37.570;2023-02-19T16:05:57;19.55;;;10.07;;
37791;SDS011;29527;55.766;37.570;2023-02-19T16:08:26;23.30;;;10.70;;
37791;SDS011;29527;55.766;37.570;2023-02-19T16:10:57;19.67;;;9.77;;
37791;SDS011;29527;55.766;37.570;2023-02-19T16:13:25;13.85;;;7.65;;
37791;SDS011;29527;55.766;37.570;2023-02-19T16:15:56;21.20;;;11.43;;
37791;SDS011;29527;55.766;37.570;2023-02-19T16:18:26;22.65;;;11.38;;
37791;SDS011;29527;55.766;37.570;2023-02-19T16:20:52;19.63;;;7.38;;
37791;SDS011;29527;55.766;37.570;2023-02-19T16:23:17;21.85;;;9.50;;
37791;SDS011;29527;55.766;37.570;2023-02-19T16:25:48;23.48;;;11.13;;
37791;SDS011;29527;55.766;37.570;2023-02-19T16:28:22;25.58;;;11.38;;
37791;SDS011;29527;55.766;37.570;2023-02-19T16:31:01;22.25;;;11.43;;
37791;SDS011;29527;55.766;37.570;2023-02-19T16:35:57;20.98;;;10.95;;
37791;SDS011;29527;55.766;37.570;2023-02-19T16:38:40;20.90;;;10.80;;
37791;SDS011;29527;55.766;37.570;2023-02-19T16:41:23;23.38;;;11.65;;
37791;SDS011;29527;55.766;37.570;2023-02-19T16:43:48;22.02;;;12.00;;
37791;SDS011;29527;55.766;37.570;2023-02-19T16:46:14;24.25;;;12.35;;
37791;SDS011;29527;55.766;37.570;2023-02-19T16:48:39;20.00;;;10.35;;
37791;SDS011;29527;55.766;37.570;2023-02-19T16:51:05;23.58;;;11.63;;
37791;SDS011;29527;55.766;37.570;2023-02-19T16:53:32;21.85;;;11.13;;
37791;SDS011;29527;55.766;37.570;2023-02-19T16:55:58;22.30;;;11.38;;
37791;SDS011;29527;55.766;37.570;2023-02-19T16:58:24;24.55;;;12.73;;
37791;SDS011;29527;55.766;37.570;2023-02-19T17:00:49;24.05;;;11.68;;
37791;SDS011;29527;55.766;37.570;2023-02-19T17:03:16;23.15;;;12.38;;
37791;SDS011;29527;55.766;37.570;2023-02-19T17:05:44;22.48;;;11.65;;
37791;SDS011;29527;55.766;37.570;2023-02-19T17:10:59;25.48;;;12.85;;
37791;SDS011;29527;55.766;37.570;2023-02-19T17:13:26;19.13;;;8.77;;
37791;SDS011;29527;55.766;37.570;2023-02-19T17:15:53;25.58;;;12.70;;
37791;SDS011;29527;55.766;37.570;2023-02-19T17:18:19;25.17;;;12.35;;
37791;SDS011;29527;55.766;37.570;2023-02-19T17:20:47;27.95;;;12.50;;